sensor_id;sensor_type;location;lat;lon;timestamp;P1;durP1;ratioP1;P2;durP2;ratioP2
48040;SDS011;33815;48.386;11.738;2023-07-13T00:01:25;17.95;;;8.35;;
48040;SDS011;33815;48.386;11.738;2023-07-13T00:03:51;15.40;;;7.85;;
48040;SDS011;33815;48.386;11.738;2023-07-13T00:06:16;18.53;;;8.20;;
48040;SDS011;33815;48.386;11.738;2023-07-13T00:08:42;12.43;;;8.15;;
48040;SDS011;33815;48.386;11.738;2023-07-13T00:11:07;16.23;;;8.32;;
48040;SDS011;33815;48.386;11.738;2023-07-13T00:13:35;13.15;;;8.00;;
48040;SDS011;33815;48.386;11.738;2023-07-13T00:16:03;11.93;;;7.28;;
48040;SDS011;33815;48.386;11.738;2023-07-13T00:18:28;10.32;;;6.93;;
48040;SDS011;33815;48.386;11.738;2023-07-13T00:20:55;14.40;;;7.13;;
48040;SDS011;33815;48.386;11.738;2023-07-13T00:23:20;12.70;;;7.05;;
48040;SDS011;33815;48.386;11.738;2023-07-13T00:25:46;15.63;;;7.13;;
48040;SDS011;33815;48.386;11.738;2023-07-13T00:28:11;15.40;;;6.93;;
48040;SDS011;33815;48.386;11.738;2023-07-13T00:30:36;13.75;;;7.00;;
48040;SDS011;33815;48.386;11.738;2023-07-13T00:33:01;10.43;;;6.97;;
48040;SDS011;33815;48.386;11.738;2023-07-13T00:35:27;10.60;;;6.87;;
48040;SDS011;33815;48.386;11.738;2023-07-13T00:37:55;6.95;;;6.05;;
48040;SDS011;33815;48.386;11.738;2023-07-13T00:40:21;7.80;;;5.60;;
48040;SDS011;33815;48.386;11.738;2023-07-13T00:42:46;8.63;;;5.90;;
48040;SDS011;33815;48.386;11.738;2023-07-13T00:47:37;7.87;;;5.70;;
48040;SDS011;33815;48.386;11.738;2023-07-13T00:50:06;8.32;;;5.80;;
48040;SDS011;33815;48.386;11.738;2023-07-13T00:52:35;9.07;;;5.30;;
48040;SDS011;33815;48.386;11.738;2023-07-13T00:55:02;10.60;;;5.00;;
48040;SDS011;33815;48.386;11.738;2023-07-13T00:57:28;11.30;;;5.95;;
48040;SDS011;33815;48.386;11.738;2023-07-13T00:59:55;6.30;;;5.53;;
48040;SDS011;33815;48.386;11.738;2023-07-13T01:02:24;9.77;;;4.97;;
48040;SDS011;33815;48.386;11.738;2023-07-13T01:04:52;10.20;;;4.32;;
48040;SDS011;33815;48.386;11.738;2023-07-13T01:07:18;8.60;;;5.03;;
48040;SDS011;33815;48.386;11.738;2023-07-13T01:09:44;10.20;;;4.75;;
48040;SDS011;33815;48.386;11.738;2023-07-13T01:12:10;10.02;;;6.00;;
48040;SDS011;33815;48.386;11.738;2023-07-13T01:14:36;4.25;;;3.85;;
48040;SDS011;33815;48.386;11.738;2023-07-13T01:17:01;10.32;;;5.22;;
48040;SDS011;33815;48.386;11.738;2023-07-13T01:19:41;7.07;;;4.55;;
48040;SDS011;33815;48.386;11.738;2023-07-13T01:22:08;5.07;;;4.20;;
48040;SDS011;33815;48.386;11.738;2023-07-13T01:24:40;6.55;;;3.95;;
48040;SDS011;33815;48.386;11.738;2023-07-13T01:27:08;5.50;;;4.03;;
48040;SDS011;33815;48.386;11.738;2023-07-13T01:29:34;6.50;;;4.20;;
48040;SDS011;33815;48.386;11.738;2023-07-13T01:32:06;7.00;;;4.85;;
48040;SDS011;33815;48.386;11.738;2023-07-13T01:34:36;6.40;;;5.05;;
48040;SDS011;33815;48.386;11.738;2023-07-13T01:37:02;10.77;;;4.68;;
48040;SDS011;33815;48.386;11.738;2023-07-13T01:39:28;9.65;;;5.03;;
48040;SDS011;33815;48.386;11.738;2023-07-13T01:41:53;10.03;;;4.70;;
48040;SDS011;33815;48.386;11.738;2023-07-13T01:44:18;7.73;;;5.20;;
48040;SDS011;33815;48.386;11.738;2023-07-13T01:46:44;7.83;;;4.93;;
48040;SDS011;33815;48.386;11.738;2023-07-13T01:49:09;9.07;;;4.43;;
48040;SDS011;33815;48.386;11.738;2023-07-13T01:51:34;10.20;;;5.25;;
48040;SDS011;33815;48.386;11.738;2023-07-13T01:53:59;7.70;;;4.27;;
48040;SDS011;33815;48.386;11.738;2023-07-13T01:56:25;9.03;;;4.37;;
48040;SDS011;33815;48.386;11.738;2023-07-13T01:58:50;7.20;;;4.47;;
48040;SDS011;33815;48.386;11.738;2023-07-13T02:01:17;6.68;;;4.50;;
48040;SDS011;33815;48.386;11.738;2023-07-13T02:03:42;8.43;;;4.05;;
48040;SDS011;33815;48.386;11.738;2023-07-13T02:06:07;6.65;;;3.80;;
48040;SDS011;33815;48.386;11.738;2023-07-13T02:08:33;9.43;;;3.65;;
48040;SDS011;33815;48.386;11.738;2023-07-13T02:10:59;7.30;;;4.47;;
48040;SDS011;33815;48.386;11.738;2023-07-13T02:13:24;7.38;;;4.25;;
48040;SDS011;33815;48.386;11.738;2023-07-13T02:15:50;8.20;;;4.78;;
48040;SDS011;33815;48.386;11.738;2023-07-13T02:18:16;12.02;;;4.38;;
48040;SDS011;33815;48.386;11.738;2023-07-13T02:20:42;7.53;;;4.10;;
48040;SDS011;33815;48.386;11.738;2023-07-13T02:23:08;6.93;;;4.13;;
48040;SDS011;33815;48.386;11.738;2023-07-13T02:25:33;9.18;;;4.50;;
48040;SDS011;33815;48.386;11.738;2023-07-13T02:27:58;7.90;;;4.90;;
48040;SDS011;33815;48.386;11.738;2023-07-13T02:30:23;4.10;;;3.70;;
48040;SDS011;33815;48.386;11.738;2023-07-13T02:32:49;10.30;;;5.28;;
48040;SDS011;33815;48.386;11.738;2023-07-13T02:35:15;6.82;;;4.00;;
48040;SDS011;33815;48.386;11.738;2023-07-13T02:37:40;9.48;;;3.95;;
48040;SDS011;33815;48.386;11.738;2023-07-13T02:40:06;9.27;;;4.10;;
48040;SDS011;33815;48.386;11.738;2023-07-13T02:42:33;9.23;;;4.13;;
48040;SDS011;33815;48.386;11.738;2023-07-13T02:44:59;7.47;;;4.45;;
48040;SDS011;33815;48.386;11.738;2023-07-13T02:47:24;8.20;;;4.30;;
48040;SDS011;33815;48.386;11.738;2023-07-13T02:49:49;5.90;;;4.23;;
48040;SDS011;33815;48.386;11.738;2023-07-13T02:52:15;5.68;;;3.92;;
48040;SDS011;33815;48.386;11.738;2023-07-13T02:54:41;6.35;;;4.22;;
48040;SDS011;33815;48.386;11.738;2023-07-13T02:57:06;5.57;;;3.87;;
48040;SDS011;33815;48.386;11.738;2023-07-13T02:59:31;7.70;;;4.82;;
48040;SDS011;33815;48.386;11.738;2023-07-13T03:01:57;8.90;;;4.35;;
48040;SDS011;33815;48.386;11.738;2023-07-13T03:04:22;11.05;;;4.20;;
48040;SDS011;33815;48.386;11.738;2023-07-13T03:06:48;5.57;;;4.65;;
48040;SDS011;33815;48.386;11.738;2023-07-13T03:09:13;10.52;;;5.20;;
48040;SDS011;33815;48.386;11.738;2023-07-13T03:11:38;7.90;;;4.90;;
48040;SDS011;33815;48.386;11.738;2023-07-13T03:14:04;11.73;;;6.38;;
48040;SDS011;33815;48.386;11.738;2023-07-13T03:16:29;11.90;;;5.45;;
48040;SDS011;33815;48.386;11.738;2023-07-13T03:18:55;7.73;;;5.27;;
48040;SDS011;33815;48.386;11.738;2023-07-13T03:21:20;9.15;;;5.82;;
48040;SDS011;33815;48.386;11.738;2023-07-13T03:23:46;12.88;;;6.22;;
48040;SDS011;33815;48.386;11.738;2023-07-13T03:26:16;13.38;;;6.45;;
48040;SDS011;33815;48.386;11.738;2023-07-13T03:28:43;13.98;;;6.18;;
48040;SDS011;33815;48.386;11.738;2023-07-13T03:31:10;11.70;;;6.68;;
48040;SDS011;33815;48.386;11.738;2023-07-13T03:33:37;11.02;;;6.43;;
48040;SDS011;33815;48.386;11.738;2023-07-13T03:36:03;9.07;;;5.97;;
48040;SDS011;33815;48.386;11.738;2023-07-13T03:38:30;7.25;;;6.13;;
48040;SDS011;33815;48.386;11.738;2023-07-13T03:40:55;11.85;;;7.13;;
48040;SDS011;33815;48.386;11.738;2023-07-13T03:43:21;12.77;;;6.33;;
48040;SDS011;33815;48.386;11.738;2023-07-13T03:45:46;16.45;;;6.97;;
48040;SDS011;33815;48.386;11.738;2023-07-13T03:48:12;8.80;;;5.70;;
48040;SDS011;33815;48.386;11.738;2023-07-13T03:50:38;8.90;;;6.78;;
48040;SDS011;33815;48.386;11.738;2023-07-13T03:53:03;14.55;;;7.07;;
48040;SDS011;33815;48.386;11.738;2023-07-13T03:55:29;12.63;;;7.22;;
48040;SDS011;33815;48.386;11.738;2023-07-13T03:57:58;12.03;;;6.40;;
48040;SDS011;33815;48.386;11.738;2023-07-13T04:00:25;12.30;;;6.93;;
48040;SDS011;33815;48.386;11.738;2023-07-13T04:02:50;10.43;;;6.63;;
48040;SDS011;33815;48.386;11.738;2023-07-13T04:05:16;13.73;;;6.88;;
48040;SDS011;33815;48.386;11.738;2023-07-13T04:07:41;16.83;;;6.50;;
48040;SDS011;33815;48.386;11.738;2023-07-13T04:10:07;14.48;;;7.03;;
48040;SDS011;33815;48.386;11.738;2023-07-13T04:12:32;12.63;;;6.97;;
48040;SDS011;33815;48.386;11.738;2023-07-13T04:14:58;13.65;;;7.72;;
48040;SDS011;33815;48.386;11.738;2023-07-13T04:17:23;13.85;;;6.70;;
48040;SDS011;33815;48.386;11.738;2023-07-13T04:19:48;10.70;;;7.00;;
48040;SDS011;33815;48.386;11.738;2023-07-13T04:22:14;13.60;;;7.38;;
48040;SDS011;33815;48.386;11.738;2023-07-13T04:24:39;12.70;;;7.15;;
48040;SDS011;33815;48.386;11.738;2023-07-13T04:27:04;9.20;;;6.72;;
48040;SDS011;33815;48.386;11.738;2023-07-13T04:29:30;13.75;;;7.38;;
48040;SDS011;33815;48.386;11.738;2023-07-13T04:31:55;11.03;;;6.40;;
48040;SDS011;33815;48.386;11.738;2023-07-13T04:34:20;13.30;;;7.25;;
48040;SDS011;33815;48.386;11.738;2023-07-13T04:36:46;11.10;;;6.07;;
48040;SDS011;33815;48.386;11.738;2023-07-13T04:39:11;10.43;;;6.60;;
48040;SDS011;33815;48.386;11.738;2023-07-13T04:41:36;17.60;;;6.20;;
48040;SDS011;33815;48.386;11.738;2023-07-13T04:44:01;12.30;;;6.53;;
48040;SDS011;33815;48.386;11.738;2023-07-13T04:46:27;13.73;;;6.25;;
48040;SDS011;33815;48.386;11.738;2023-07-13T04:48:53;9.00;;;5.93;;
48040;SDS011;33815;48.386;11.738;2023-07-13T04:51:18;7.50;;;5.55;;
48040;SDS011;33815;48.386;11.738;2023-07-13T04:53:44;14.43;;;6.55;;
48040;SDS011;33815;48.386;11.738;2023-07-13T04:56:09;9.52;;;6.22;;
48040;SDS011;33815;48.386;11.738;2023-07-13T04:58:34;7.88;;;6.00;;
48040;SDS011;33815;48.386;11.738;2023-07-13T05:01:03;9.18;;;5.97;;
48040;SDS011;33815;48.386;11.738;2023-07-13T05:03:30;10.43;;;6.32;;
48040;SDS011;33815;48.386;11.738;2023-07-13T05:05:56;11.63;;;5.60;;
48040;SDS011;33815;48.386;11.738;2023-07-13T05:08:24;14.93;;;6.30;;
48040;SDS011;33815;48.386;11.738;2023-07-13T05:10:50;12.50;;;5.85;;
48040;SDS011;33815;48.386;11.738;2023-07-13T05:13:15;11.15;;;6.25;;
48040;SDS011;33815;48.386;11.738;2023-07-13T05:15:41;9.47;;;5.70;;
48040;SDS011;33815;48.386;11.738;2023-07-13T05:18:06;9.73;;;6.67;;
48040;SDS011;33815;48.386;11.738;2023-07-13T05:20:31;13.70;;;6.43;;
48040;SDS011;33815;48.386;11.738;2023-07-13T05:22:56;7.67;;;6.47;;
48040;SDS011;33815;48.386;11.738;2023-07-13T05:25:22;9.93;;;6.10;;
48040;SDS011;33815;48.386;11.738;2023-07-13T05:27:47;14.73;;;6.53;;
48040;SDS011;33815;48.386;11.738;2023-07-13T05:30:13;9.18;;;5.38;;
48040;SDS011;33815;48.386;11.738;2023-07-13T05:32:38;8.10;;;5.90;;
48040;SDS011;33815;48.386;11.738;2023-07-13T05:35:04;13.00;;;7.32;;
48040;SDS011;33815;48.386;11.738;2023-07-13T05:37:30;9.23;;;6.10;;
48040;SDS011;33815;48.386;11.738;2023-07-13T05:39:55;9.98;;;5.93;;
48040;SDS011;33815;48.386;11.738;2023-07-13T05:42:20;9.37;;;5.90;;
48040;SDS011;33815;48.386;11.738;2023-07-13T05:44:46;14.93;;;6.87;;
48040;SDS011;33815;48.386;11.738;2023-07-13T05:47:11;13.60;;;6.83;;
48040;SDS011;33815;48.386;11.738;2023-07-13T05:49:36;8.85;;;6.55;;
48040;SDS011;33815;48.386;11.738;2023-07-13T05:52:02;9.65;;;5.60;;
48040;SDS011;33815;48.386;11.738;2023-07-13T05:54:27;6.72;;;5.95;;
48040;SDS011;33815;48.386;11.738;2023-07-13T05:56:52;6.82;;;5.78;;
48040;SDS011;33815;48.386;11.738;2023-07-13T05:59:18;7.97;;;5.57;;
48040;SDS011;33815;48.386;11.738;2023-07-13T06:01:43;8.03;;;5.50;;
48040;SDS011;33815;48.386;11.738;2023-07-13T06:04:08;9.13;;;5.00;;
48040;SDS011;33815;48.386;11.738;2023-07-13T06:06:34;14.48;;;5.32;;
48040;SDS011;33815;48.386;11.738;2023-07-13T06:08:59;5.30;;;4.80;;
48040;SDS011;33815;48.386;11.738;2023-07-13T06:11:25;11.35;;;4.95;;
48040;SDS011;33815;48.386;11.738;2023-07-13T06:13:52;6.78;;;4.55;;
48040;SDS011;33815;48.386;11.738;2023-07-13T06:16:17;6.18;;;4.10;;
48040;SDS011;33815;48.386;11.738;2023-07-13T06:18:43;8.93;;;4.20;;
48040;SDS011;33815;48.386;11.738;2023-07-13T06:21:09;9.00;;;3.60;;
48040;SDS011;33815;48.386;11.738;2023-07-13T06:23:36;7.90;;;3.28;;
48040;SDS011;33815;48.386;11.738;2023-07-13T06:26:02;7.75;;;2.90;;
48040;SDS011;33815;48.386;11.738;2023-07-13T06:28:29;3.78;;;3.15;;
48040;SDS011;33815;48.386;11.738;2023-07-13T06:30:56;6.72;;;3.17;;
48040;SDS011;33815;48.386;11.738;2023-07-13T06:33:21;6.50;;;2.35;;
48040;SDS011;33815;48.386;11.738;2023-07-13T06:35:47;3.60;;;2.53;;
48040;SDS011;33815;48.386;11.738;2023-07-13T06:38:12;5.70;;;2.37;;
48040;SDS011;33815;48.386;11.738;2023-07-13T06:40:37;5.80;;;2.53;;
48040;SDS011;33815;48.386;11.738;2023-07-13T06:43:02;12.87;;;2.63;;
48040;SDS011;33815;48.386;11.738;2023-07-13T06:45:28;4.77;;;2.73;;
48040;SDS011;33815;48.386;11.738;2023-07-13T06:47:53;4.90;;;2.20;;
48040;SDS011;33815;48.386;11.738;2023-07-13T06:50:18;4.00;;;2.80;;
48040;SDS011;33815;48.386;11.738;2023-07-13T06:52:43;2.90;;;2.13;;
48040;SDS011;33815;48.386;11.738;2023-07-13T06:55:09;3.53;;;2.13;;
48040;SDS011;33815;48.386;11.738;2023-07-13T06:57:34;4.38;;;3.03;;
48040;SDS011;33815;48.386;11.738;2023-07-13T06:59:59;5.37;;;2.47;;
48040;SDS011;33815;48.386;11.738;2023-07-13T07:02:25;4.23;;;2.33;;
48040;SDS011;33815;48.386;11.738;2023-07-13T07:04:50;4.85;;;2.10;;
48040;SDS011;33815;48.386;11.738;2023-07-13T07:07:15;4.53;;;1.98;;
48040;SDS011;33815;48.386;11.738;2023-07-13T07:09:41;4.40;;;2.03;;
48040;SDS011;33815;48.386;11.738;2023-07-13T07:12:06;3.72;;;1.80;;
48040;SDS011;33815;48.386;11.738;2023-07-13T07:14:32;3.10;;;1.80;;
48040;SDS011;33815;48.386;11.738;2023-07-13T07:16:59;3.33;;;2.45;;
48040;SDS011;33815;48.386;11.738;2023-07-13T07:19:24;3.47;;;1.87;;
48040;SDS011;33815;48.386;11.738;2023-07-13T07:21:49;8.17;;;2.97;;
48040;SDS011;33815;48.386;11.738;2023-07-13T07:24:14;3.55;;;1.42;;
48040;SDS011;33815;48.386;11.738;2023-07-13T07:26:40;3.42;;;2.22;;
48040;SDS011;33815;48.386;11.738;2023-07-13T07:29:06;4.82;;;2.15;;
48040;SDS011;33815;48.386;11.738;2023-07-13T07:31:31;3.57;;;2.77;;
48040;SDS011;33815;48.386;11.738;2023-07-13T07:33:56;4.38;;;2.10;;
48040;SDS011;33815;48.386;11.738;2023-07-13T07:36:22;4.97;;;1.63;;
48040;SDS011;33815;48.386;11.738;2023-07-13T07:38:47;5.97;;;2.00;;
48040;SDS011;33815;48.386;11.738;2023-07-13T07:41:12;4.10;;;2.10;;
48040;SDS011;33815;48.386;11.738;2023-07-13T07:43:38;6.35;;;1.75;;
48040;SDS011;33815;48.386;11.738;2023-07-13T07:46:04;3.37;;;1.70;;
48040;SDS011;33815;48.386;11.738;2023-07-13T07:48:29;5.00;;;2.10;;
48040;SDS011;33815;48.386;11.738;2023-07-13T07:50:55;5.32;;;1.50;;
48040;SDS011;33815;48.386;11.738;2023-07-13T07:53:20;6.30;;;1.77;;
48040;SDS011;33815;48.386;11.738;2023-07-13T07:55:46;4.67;;;1.50;;
48040;SDS011;33815;48.386;11.738;2023-07-13T07:58:12;7.50;;;1.90;;
48040;SDS011;33815;48.386;11.738;2023-07-13T08:00:37;2.40;;;1.30;;
48040;SDS011;33815;48.386;11.738;2023-07-13T08:03:03;4.03;;;1.50;;
48040;SDS011;33815;48.386;11.738;2023-07-13T08:05:28;1.83;;;1.70;;
48040;SDS011;33815;48.386;11.738;2023-07-13T08:07:53;3.88;;;1.80;;
48040;SDS011;33815;48.386;11.738;2023-07-13T08:10:19;4.22;;;1.70;;
48040;SDS011;33815;48.386;11.738;2023-07-13T08:12:44;1.85;;;1.40;;
48040;SDS011;33815;48.386;11.738;2023-07-13T08:15:11;4.82;;;1.90;;
48040;SDS011;33815;48.386;11.738;2023-07-13T08:17:37;3.22;;;2.08;;
48040;SDS011;33815;48.386;11.738;2023-07-13T08:20:02;2.27;;;1.57;;
48040;SDS011;33815;48.386;11.738;2023-07-13T08:22:29;3.03;;;1.67;;
48040;SDS011;33815;48.386;11.738;2023-07-13T08:24:54;4.35;;;1.42;;
48040;SDS011;33815;48.386;11.738;2023-07-13T08:27:22;1.88;;;1.25;;
48040;SDS011;33815;48.386;11.738;2023-07-13T08:29:48;3.47;;;1.30;;
48040;SDS011;33815;48.386;11.738;2023-07-13T08:32:15;10.60;;;2.13;;
48040;SDS011;33815;48.386;11.738;2023-07-13T08:34:40;2.05;;;1.30;;
48040;SDS011;33815;48.386;11.738;2023-07-13T08:37:06;4.88;;;1.80;;
48040;SDS011;33815;48.386;11.738;2023-07-13T08:39:32;5.32;;;1.50;;
48040;SDS011;33815;48.386;11.738;2023-07-13T08:42:58;6.05;;;1.63;;
48040;SDS011;33815;48.386;11.738;2023-07-13T08:45:14;5.95;;;1.73;;
48040;SDS011;33815;48.386;11.738;2023-07-13T08:47:47;1.20;;;1.10;;
48040;SDS011;33815;48.386;11.738;2023-07-13T08:50:19;6.22;;;1.13;;
48040;SDS011;33815;48.386;11.738;2023-07-13T08:52:48;2.15;;;0.95;;
48040;SDS011;33815;48.386;11.738;2023-07-13T08:55:19;3.22;;;1.85;;
48040;SDS011;33815;48.386;11.738;2023-07-13T08:57:50;1.90;;;1.00;;
48040;SDS011;33815;48.386;11.738;2023-07-13T09:00:31;2.15;;;1.10;;
48040;SDS011;33815;48.386;11.738;2023-07-13T09:03:02;3.50;;;1.30;;
48040;SDS011;33815;48.386;11.738;2023-07-13T09:05:29;3.65;;;1.30;;
48040;SDS011;33815;48.386;11.738;2023-07-13T09:11:11;1.65;;;1.20;;
48040;SDS011;33815;48.386;11.738;2023-07-13T09:17:05;3.78;;;1.58;;
48040;SDS011;33815;48.386;11.738;2023-07-13T09:19:35;1.42;;;1.23;;
48040;SDS011;33815;48.386;11.738;2023-07-13T09:22:01;3.75;;;1.63;;
48040;SDS011;33815;48.386;11.738;2023-07-13T09:27:05;4.20;;;1.67;;
48040;SDS011;33815;48.386;11.738;2023-07-13T09:29:38;3.75;;;1.27;;
48040;SDS011;33815;48.386;11.738;2023-07-13T09:32:11;3.92;;;1.50;;
48040;SDS011;33815;48.386;11.738;2023-07-13T09:34:39;4.18;;;1.60;;
48040;SDS011;33815;48.386;11.738;2023-07-13T09:37:05;5.80;;;1.80;;
48040;SDS011;33815;48.386;11.738;2023-07-13T09:39:35;4.43;;;1.52;;
48040;SDS011;33815;48.386;11.738;2023-07-13T09:42:14;2.95;;;1.80;;
48040;SDS011;33815;48.386;11.738;2023-07-13T09:44:55;2.40;;;1.40;;
48040;SDS011;33815;48.386;11.738;2023-07-13T09:47:24;2.25;;;1.27;;
48040;SDS011;33815;48.386;11.738;2023-07-13T09:50:05;8.82;;;1.42;;
48040;SDS011;33815;48.386;11.738;2023-07-13T09:52:41;4.50;;;1.38;;
48040;SDS011;33815;48.386;11.738;2023-07-13T09:55:29;8.77;;;1.50;;
48040;SDS011;33815;48.386;11.738;2023-07-13T09:58:02;5.53;;;1.55;;
48040;SDS011;33815;48.386;11.738;2023-07-13T10:00:38;1.80;;;0.90;;
48040;SDS011;33815;48.386;11.738;2023-07-13T10:05:44;3.13;;;1.00;;
48040;SDS011;33815;48.386;11.738;2023-07-13T10:08:17;2.53;;;1.20;;
48040;SDS011;33815;48.386;11.738;2023-07-13T10:10:59;1.15;;;0.95;;
48040;SDS011;33815;48.386;11.738;2023-07-13T10:15:56;4.78;;;1.35;;
48040;SDS011;33815;48.386;11.738;2023-07-13T10:18:24;2.83;;;1.30;;
48040;SDS011;33815;48.386;11.738;2023-07-13T10:20:53;2.53;;;1.10;;
48040;SDS011;33815;48.386;11.738;2023-07-13T10:23:25;1.17;;;1.08;;
48040;SDS011;33815;48.386;11.738;2023-07-13T10:25:55;3.38;;;1.08;;
48040;SDS011;33815;48.386;11.738;2023-07-13T10:28:29;4.38;;;1.05;;
48040;SDS011;33815;48.386;11.738;2023-07-13T10:30:58;5.10;;;1.13;;
48040;SDS011;33815;48.386;11.738;2023-07-13T10:33:25;3.85;;;1.30;;
48040;SDS011;33815;48.386;11.738;2023-07-13T10:35:52;3.63;;;1.40;;
48040;SDS011;33815;48.386;11.738;2023-07-13T10:38:37;5.85;;;1.25;;
48040;SDS011;33815;48.386;11.738;2023-07-13T10:41:03;3.33;;;1.45;;
48040;SDS011;33815;48.386;11.738;2023-07-13T10:43:33;2.70;;;0.88;;
48040;SDS011;33815;48.386;11.738;2023-07-13T10:46:03;2.97;;;1.13;;
48040;SDS011;33815;48.386;11.738;2023-07-13T10:48:30;3.58;;;1.20;;
48040;SDS011;33815;48.386;11.738;2023-07-13T10:50:59;4.53;;;1.90;;
48040;SDS011;33815;48.386;11.738;2023-07-13T10:53:33;3.70;;;1.20;;
48040;SDS011;33815;48.386;11.738;2023-07-13T10:56:02;4.13;;;1.27;;
48040;SDS011;33815;48.386;11.738;2023-07-13T11:01:06;2.28;;;1.15;;
48040;SDS011;33815;48.386;11.738;2023-07-13T11:03:47;4.05;;;1.45;;
48040;SDS011;33815;48.386;11.738;2023-07-13T11:18:40;2.43;;;1.47;;
48040;SDS011;33815;48.386;11.738;2023-07-13T11:21:14;1.48;;;1.02;;
48040;SDS011;33815;48.386;11.738;2023-07-13T11:23:54;3.90;;;1.25;;
48040;SDS011;33815;48.386;11.738;2023-07-13T11:29:27;5.10;;;1.42;;
48040;SDS011;33815;48.386;11.738;2023-07-13T11:32:02;2.90;;;1.10;;
48040;SDS011;33815;48.386;11.738;2023-07-13T11:34:48;1.10;;;0.95;;
48040;SDS011;33815;48.386;11.738;2023-07-13T11:37:15;2.70;;;1.15;;
48040;SDS011;33815;48.386;11.738;2023-07-13T11:39:44;7.40;;;1.50;;
48040;SDS011;33815;48.386;11.738;2023-07-13T11:42:15;4.35;;;1.20;;
48040;SDS011;33815;48.386;11.738;2023-07-13T11:44:42;2.47;;;1.30;;
48040;SDS011;33815;48.386;11.738;2023-07-13T11:47:11;3.35;;;1.58;;
48040;SDS011;33815;48.386;11.738;2023-07-13T11:49:45;6.75;;;1.40;;
48040;SDS011;33815;48.386;11.738;2023-07-13T11:52:15;1.77;;;1.48;;
48040;SDS011;33815;48.386;11.738;2023-07-13T11:54:46;3.33;;;1.30;;
48040;SDS011;33815;48.386;11.738;2023-07-13T11:57:27;3.40;;;1.35;;
48040;SDS011;33815;48.386;11.738;2023-07-13T11:59:56;2.72;;;1.08;;
48040;SDS011;33815;48.386;11.738;2023-07-13T12:02:26;3.38;;;1.08;;
48040;SDS011;33815;48.386;11.738;2023-07-13T12:04:54;2.55;;;1.30;;
48040;SDS011;33815;48.386;11.738;2023-07-13T12:07:20;3.53;;;1.30;;
48040;SDS011;33815;48.386;11.738;2023-07-13T12:09:45;1.45;;;1.00;;
48040;SDS011;33815;48.386;11.738;2023-07-13T12:12:12;4.45;;;1.30;;
48040;SDS011;33815;48.386;11.738;2023-07-13T12:14:39;2.00;;;0.90;;
48040;SDS011;33815;48.386;11.738;2023-07-13T12:17:24;3.05;;;1.15;;
48040;SDS011;33815;48.386;11.738;2023-07-13T12:19:50;3.22;;;1.27;;
48040;SDS011;33815;48.386;11.738;2023-07-13T12:22:17;1.88;;;0.90;;
48040;SDS011;33815;48.386;11.738;2023-07-13T12:24:44;1.23;;;0.88;;
48040;SDS011;33815;48.386;11.738;2023-07-13T12:27:28;2.88;;;0.95;;
48040;SDS011;33815;48.386;11.738;2023-07-13T12:30:01;1.65;;;0.90;;
48040;SDS011;33815;48.386;11.738;2023-07-13T12:32:30;1.30;;;1.20;;
48040;SDS011;33815;48.386;11.738;2023-07-13T12:35:15;5.72;;;1.00;;
48040;SDS011;33815;48.386;11.738;2023-07-13T12:37:44;1.55;;;1.00;;
48040;SDS011;33815;48.386;11.738;2023-07-13T12:40:18;1.30;;;0.90;;
48040;SDS011;33815;48.386;11.738;2023-07-13T12:42:48;2.15;;;1.08;;
48040;SDS011;33815;48.386;11.738;2023-07-13T12:45:17;1.95;;;1.25;;
48040;SDS011;33815;48.386;11.738;2023-07-13T12:47:50;1.13;;;0.98;;
48040;SDS011;33815;48.386;11.738;2023-07-13T12:50:22;0.88;;;0.82;;
48040;SDS011;33815;48.386;11.738;2023-07-13T12:52:55;3.40;;;1.05;;
48040;SDS011;33815;48.386;11.738;2023-07-13T12:55:28;1.92;;;1.73;;
48040;SDS011;33815;48.386;11.738;2023-07-13T12:57:57;4.78;;;1.10;;
48040;SDS011;33815;48.386;11.738;2023-07-13T13:00:28;2.22;;;1.00;;
48040;SDS011;33815;48.386;11.738;2023-07-13T13:02:58;0.95;;;0.75;;
48040;SDS011;33815;48.386;11.738;2023-07-13T13:05:28;2.53;;;1.02;;
48040;SDS011;33815;48.386;11.738;2023-07-13T13:07:55;1.42;;;0.73;;
48040;SDS011;33815;48.386;11.738;2023-07-13T13:10:20;2.50;;;1.13;;
48040;SDS011;33815;48.386;11.738;2023-07-13T13:12:46;1.58;;;1.00;;
48040;SDS011;33815;48.386;11.738;2023-07-13T13:15:12;4.88;;;1.08;;
48040;SDS011;33815;48.386;11.738;2023-07-13T13:17:38;2.83;;;0.83;;
48040;SDS011;33815;48.386;11.738;2023-07-13T13:20:14;4.15;;;0.80;;
48040;SDS011;33815;48.386;11.738;2023-07-13T13:22:41;7.63;;;1.00;;
48040;SDS011;33815;48.386;11.738;2023-07-13T13:25:08;2.22;;;1.17;;
48040;SDS011;33815;48.386;11.738;2023-07-13T13:27:35;5.65;;;1.15;;
48040;SDS011;33815;48.386;11.738;2023-07-13T13:30:01;1.40;;;0.93;;
48040;SDS011;33815;48.386;11.738;2023-07-13T13:32:27;1.83;;;1.23;;
48040;SDS011;33815;48.386;11.738;2023-07-13T13:34:52;1.67;;;0.80;;
48040;SDS011;33815;48.386;11.738;2023-07-13T13:37:22;2.42;;;1.15;;
48040;SDS011;33815;48.386;11.738;2023-07-13T13:39:48;2.75;;;1.13;;
48040;SDS011;33815;48.386;11.738;2023-07-13T13:42:14;3.38;;;1.60;;
48040;SDS011;33815;48.386;11.738;2023-07-13T13:44:40;1.60;;;1.17;;
48040;SDS011;33815;48.386;11.738;2023-07-13T13:47:19;1.67;;;0.98;;
48040;SDS011;33815;48.386;11.738;2023-07-13T13:52:19;1.57;;;1.10;;
48040;SDS011;33815;48.386;11.738;2023-07-13T13:54:44;3.60;;;1.13;;
48040;SDS011;33815;48.386;11.738;2023-07-13T13:57:09;1.55;;;0.95;;
48040;SDS011;33815;48.386;11.738;2023-07-13T13:59:37;3.00;;;1.10;;
48040;SDS011;33815;48.386;11.738;2023-07-13T14:02:07;4.70;;;0.95;;
48040;SDS011;33815;48.386;11.738;2023-07-13T14:04:50;2.33;;;0.95;;
48040;SDS011;33815;48.386;11.738;2023-07-13T14:07:19;2.55;;;1.10;;
48040;SDS011;33815;48.386;11.738;2023-07-13T14:09:45;1.50;;;1.00;;
48040;SDS011;33815;48.386;11.738;2023-07-13T14:12:10;1.13;;;1.00;;
48040;SDS011;33815;48.386;11.738;2023-07-13T14:14:37;2.33;;;1.00;;
48040;SDS011;33815;48.386;11.738;2023-07-13T14:17:08;1.02;;;0.85;;
48040;SDS011;33815;48.386;11.738;2023-07-13T14:19:46;1.95;;;0.98;;
48040;SDS011;33815;48.386;11.738;2023-07-13T14:22:11;1.63;;;1.20;;
48040;SDS011;33815;48.386;11.738;2023-07-13T14:24:37;1.30;;;1.20;;
48040;SDS011;33815;48.386;11.738;2023-07-13T14:27:02;3.63;;;1.20;;
48040;SDS011;33815;48.386;11.738;2023-07-13T14:29:28;2.47;;;1.20;;
48040;SDS011;33815;48.386;11.738;2023-07-13T14:31:53;1.65;;;1.17;;
48040;SDS011;33815;48.386;11.738;2023-07-13T14:34:18;4.93;;;1.33;;
48040;SDS011;33815;48.386;11.738;2023-07-13T14:36:44;1.10;;;1.00;;
48040;SDS011;33815;48.386;11.738;2023-07-13T14:41:44;3.20;;;1.17;;
48040;SDS011;33815;48.386;11.738;2023-07-13T14:44:14;1.40;;;1.10;;
48040;SDS011;33815;48.386;11.738;2023-07-13T14:46:40;4.15;;;1.17;;
48040;SDS011;33815;48.386;11.738;2023-07-13T14:49:29;2.95;;;0.98;;
48040;SDS011;33815;48.386;11.738;2023-07-13T14:52:01;1.65;;;1.00;;
48040;SDS011;33815;48.386;11.738;2023-07-13T14:54:36;2.92;;;1.02;;
48040;SDS011;33815;48.386;11.738;2023-07-13T14:57:07;3.60;;;1.40;;
48040;SDS011;33815;48.386;11.738;2023-07-13T14:59:34;2.80;;;1.10;;
48040;SDS011;33815;48.386;11.738;2023-07-13T15:01:59;3.43;;;2.23;;
48040;SDS011;33815;48.386;11.738;2023-07-13T15:04:24;2.28;;;1.20;;
48040;SDS011;33815;48.386;11.738;2023-07-13T15:07:00;2.17;;;0.93;;
48040;SDS011;33815;48.386;11.738;2023-07-13T15:09:27;1.20;;;1.05;;
48040;SDS011;33815;48.386;11.738;2023-07-13T15:11:54;1.67;;;1.00;;
48040;SDS011;33815;48.386;11.738;2023-07-13T15:14:20;4.15;;;1.17;;